Pagina principale
METAR-TAF:

METAR-TAF

Aeroporti :

Aeroporto Internazionale di Baghdad

Baghdad, Iraq

latitudine: 33-15-45N, longitudine: 44-14-04E, altezza: 35 m

Osservazione

Il bollettino è stato emesso 18 minuti fa, alle 05:00 UTC
Vento 13 kt da sud-ovest
Temperature 17°C
Umidità 52%
Pressione 1010 hPa
Visibilità 10 km o più
nessuna nube inferiore a 1500 m e nessun cumulonembo

METAR: ORBI 300500Z 23013KT CAVOK 17/07 Q1010 NOSIG

Ora: 08:18 (05:18 UTC)

Previsione

Il bollettino è stato emesso 6 ore e 18 minuti fa, alle 23:00 UTC
Previsione valida dal 30 alle 00 UTC al 30 alle 24 UTC
Vento 8 kt da sud-ovest
Visibilità: 7000 m

TAF: ORBI 292300Z 3000/3024 22008KT 7000 NSC

Osservazioni e previsioni meteorologiche di più di 4000 aeroporti (messaggi METAR e TAF).

Le stazioni disponibili sono rappresentate dai dischi gialli e rossi sulla carta.

Puntare il mouse per vedere il nome della stazione.

Clicca sopra per visualizzare le osservazioni e previsioni meteorologiche.

Per cambiare la mappa : fare clic sui pulsanti verdi con una croce nera per ingrandire, il pulsante verde con un trattino per diminuire, o sulla freccia verde per le mappe adiacenti.


METAR-TAF: